createdAt,value
2023-04-13T00:00:48.997Z,28.35
2023-04-13T00:03:17.494Z,28.60
2023-04-13T00:05:53.098Z,30.70
2023-04-13T00:08:22.885Z,33.05
2023-04-13T00:10:51.160Z,25.00
2023-04-13T00:13:18.887Z,27.83
2023-04-13T00:15:46.326Z,25.70
2023-04-13T00:18:13.669Z,28.15
2023-04-13T00:20:44.273Z,27.00
2023-04-13T00:23:12.386Z,30.02
2023-04-13T00:25:39.840Z,23.33
2023-04-13T00:28:07.878Z,29.70
2023-04-13T00:30:35.368Z,26.98
2023-04-13T00:33:05.219Z,28.40
2023-04-13T00:35:33.122Z,31.15
2023-04-13T00:38:03.118Z,27.85
2023-04-13T00:40:30.934Z,27.70
2023-04-13T00:42:58.458Z,26.38
2023-04-13T00:45:26.299Z,27.45
2023-04-13T00:47:54.099Z,30.40
2023-04-13T00:50:21.761Z,26.40
2023-04-13T00:52:49.857Z,26.95
2023-04-13T00:55:21.387Z,25.63
2023-04-13T00:57:53.089Z,26.08
2023-04-13T01:00:21.957Z,25.85
2023-04-13T01:02:50.678Z,26.73
2023-04-13T01:05:18.688Z,24.88
2023-04-13T01:08:22.240Z,26.73
2023-04-13T01:10:56.760Z,23.98
2023-04-13T01:13:52.832Z,27.40
2023-04-13T01:16:25.193Z,29.80
2023-04-13T01:18:54.067Z,22.70
2023-04-13T01:21:26.094Z,27.58
2023-04-13T01:24:29.794Z,26.38
2023-04-13T01:27:07.678Z,27.00
2023-04-13T01:29:36.450Z,27.45
2023-04-13T01:32:05.023Z,27.67
2023-04-13T01:34:33.388Z,27.52
2023-04-13T01:37:04.559Z,22.80
2023-04-13T01:39:33.337Z,24.08
2023-04-13T01:42:17.020Z,24.98
2023-04-13T01:44:45.629Z,24.30
2023-04-13T01:47:20.434Z,22.20
2023-04-13T01:50:13.355Z,23.35
2023-04-13T01:53:11.222Z,23.25
2023-04-13T01:55:43.891Z,25.67
2023-04-13T01:58:14.603Z,27.23
2023-04-13T02:00:45.499Z,25.42
2023-04-13T02:03:15.633Z,24.83
2023-04-13T02:05:43.719Z,25.08
2023-04-13T02:08:11.169Z,26.63
2023-04-13T02:10:45.422Z,22.73
2023-04-13T02:13:13.436Z,24.25
2023-04-13T02:15:42.094Z,25.20
2023-04-13T02:18:10.648Z,25.55
2023-04-13T02:20:43.512Z,24.33
2023-04-13T02:23:15.068Z,29.38
2023-04-13T02:25:47.162Z,28.42
2023-04-13T02:28:16.035Z,28.30
2023-04-13T02:30:45.677Z,25.98
2023-04-13T02:33:13.176Z,25.35
2023-04-13T02:35:40.690Z,24.05
2023-04-13T02:38:10.735Z,30.38
2023-04-13T02:40:39.055Z,31.23
2023-04-13T02:43:07.949Z,28.55
2023-04-13T02:45:40.089Z,28.42
2023-04-13T02:48:10.528Z,29.65
2023-04-13T02:50:37.953Z,30.85
2023-04-13T02:53:09.251Z,18.67
2023-04-13T02:55:39.102Z,32.90
2023-04-13T02:58:12.129Z,24.13
2023-04-13T03:00:40.085Z,29.73
2023-04-13T03:03:11.945Z,35.33
2023-04-13T03:05:44.844Z,36.70
2023-04-13T03:08:17.463Z,34.87
2023-04-13T03:11:09.484Z,37.75
2023-04-13T03:13:40.076Z,37.13
2023-04-13T03:16:08.210Z,40.40
2023-04-13T03:18:36.414Z,39.65
2023-04-13T03:21:07.775Z,35.63
2023-04-13T03:23:45.997Z,37.88
2023-04-13T03:26:15.565Z,39.05
2023-04-13T03:28:43.765Z,42.45
2023-04-13T03:31:11.619Z,41.33
2023-04-13T03:33:39.148Z,36.47
2023-04-13T03:36:08.529Z,37.00
2023-04-13T03:38:37.715Z,36.63
2023-04-13T03:41:05.688Z,33.83
2023-04-13T03:43:34.456Z,34.17
2023-04-13T03:46:07.729Z,36.05
2023-04-13T03:48:35.328Z,38.40
2023-04-13T03:51:05.565Z,32.80
2023-04-13T03:53:46.096Z,30.00
2023-04-13T03:56:13.669Z,28.58
2023-04-13T03:58:42.038Z,30.75
2023-04-13T04:01:10.835Z,28.02
2023-04-13T04:03:46.143Z,27.65
2023-04-13T04:06:14.066Z,29.02
2023-04-13T04:08:49.703Z,27.92
2023-04-13T04:11:35.079Z,28.13
2023-04-13T04:14:03.460Z,25.73
2023-04-13T04:16:31.552Z,27.42
2023-04-13T04:19:08.115Z,26.83
2023-04-13T04:21:35.965Z,32.03
2023-04-13T04:26:38.224Z,26.38
2023-04-13T04:29:08.902Z,30.40
2023-04-13T04:31:43.610Z,27.75
2023-04-13T04:34:16.718Z,25.85
2023-04-13T04:36:50.399Z,27.63
2023-04-13T04:39:22.534Z,29.13
2023-04-13T04:42:04.177Z,32.40
2023-04-13T04:44:33.584Z,33.35
2023-04-13T04:47:05.934Z,34.78
2023-04-13T04:49:39.878Z,28.90
2023-04-13T04:52:12.439Z,29.52
2023-04-13T04:54:40.912Z,29.02
2023-04-13T04:57:10.636Z,33.90
2023-04-13T04:59:40.847Z,28.27
2023-04-13T05:02:08.344Z,32.72
2023-04-13T05:04:36.568Z,31.38
2023-04-13T05:07:04.490Z,31.65
2023-04-13T05:09:38.640Z,33.08
2023-04-13T05:12:07.565Z,35.35
2023-04-13T05:14:37.173Z,31.70
2023-04-13T05:17:05.588Z,32.70
2023-04-13T05:19:39.373Z,30.17
2023-04-13T05:22:37.228Z,35.95
2023-04-13T05:25:08.144Z,36.05
2023-04-13T05:27:35.884Z,34.70
2023-04-13T05:30:05.446Z,35.30
2023-04-13T05:32:35.045Z,38.70
2023-04-13T05:35:04.415Z,36.65
2023-04-13T05:37:32.599Z,36.45
2023-04-13T05:40:00.981Z,42.10
2023-04-13T05:42:32.400Z,29.70
2023-04-13T05:45:00.935Z,40.60
2023-04-13T05:47:29.243Z,35.80
2023-04-13T05:50:01.808Z,37.45
2023-04-13T05:52:30.077Z,38.20
2023-04-13T05:54:58.129Z,35.45
2023-04-13T05:57:26.175Z,44.10
2023-04-13T05:59:55.183Z,32.30
2023-04-13T06:02:26.956Z,38.15
2023-04-13T06:04:55.198Z,37.35
2023-04-13T06:07:23.763Z,33.17
2023-04-13T06:09:51.726Z,35.10
2023-04-13T06:12:19.439Z,33.65
2023-04-13T06:14:47.665Z,39.70
2023-04-13T06:17:15.085Z,38.58
2023-04-13T06:19:42.625Z,36.85
2023-04-13T06:22:10.153Z,36.83
2023-04-13T06:24:40.013Z,38.08
2023-04-13T06:27:10.136Z,41.08
2023-04-13T06:29:38.835Z,35.90
2023-04-13T06:32:09.893Z,38.55
2023-04-13T06:34:37.935Z,38.72
2023-04-13T06:37:07.350Z,32.72
2023-04-13T06:39:44.147Z,35.05
2023-04-13T06:42:13.697Z,34.03
2023-04-13T06:45:01.942Z,32.55
2023-04-13T06:47:37.341Z,33.53
2023-04-13T06:50:06.845Z,38.50
2023-04-13T06:52:37.800Z,34.20
2023-04-13T06:55:05.953Z,34.95
2023-04-13T06:57:37.962Z,33.60
2023-04-13T07:00:15.429Z,32.08
2023-04-13T07:02:54.419Z,37.70
2023-04-13T07:05:22.740Z,34.00
2023-04-13T07:07:52.238Z,33.67
2023-04-13T07:10:21.324Z,32.58
2023-04-13T07:12:49.556Z,27.15
2023-04-13T07:15:21.219Z,31.73
2023-04-13T07:17:49.304Z,30.08
2023-04-13T07:20:17.696Z,27.48
2023-04-13T07:22:47.716Z,29.60
2023-04-13T07:25:15.357Z,33.38
2023-04-13T07:27:42.863Z,29.15
2023-04-13T07:30:10.630Z,27.27
2023-04-13T07:32:42.669Z,32.42
2023-04-13T07:35:11.167Z,26.13
2023-04-13T07:37:42.275Z,24.98
2023-04-13T07:40:11.829Z,24.40
2023-04-13T07:42:41.311Z,23.77
2023-04-13T07:45:10.977Z,31.05
2023-04-13T07:47:38.950Z,25.35
2023-04-13T07:50:09.701Z,24.40
2023-04-13T07:52:38.093Z,24.25
2023-04-13T07:55:07.172Z,25.80
2023-04-13T07:57:38.429Z,25.83
2023-04-13T08:00:08.345Z,28.52
2023-04-13T08:02:41.737Z,25.70
2023-04-13T08:07:46.425Z,23.58
2023-04-13T08:10:15.486Z,23.45
2023-04-13T08:12:43.801Z,23.52
2023-04-13T08:15:12.550Z,23.52
2023-04-13T08:17:40.064Z,27.98
2023-04-13T08:20:08.365Z,24.80
2023-04-13T08:22:36.877Z,22.75
2023-04-13T08:25:06.447Z,25.20
2023-04-13T08:27:34.647Z,23.40
2023-04-13T08:30:03.272Z,21.33
2023-04-13T08:32:41.647Z,28.80
2023-04-13T08:35:09.670Z,24.83
2023-04-13T08:37:39.543Z,22.60
2023-04-13T08:40:12.101Z,25.52
2023-04-13T08:42:41.515Z,25.67
2023-04-13T08:45:09.905Z,28.88
2023-04-13T08:47:41.370Z,29.27
2023-04-13T08:50:10.071Z,26.52
2023-04-13T08:52:41.038Z,26.13
2023-04-13T08:55:08.869Z,38.10
2023-04-13T08:57:38.965Z,29.00
2023-04-13T09:00:16.619Z,22.75
2023-04-13T09:03:03.069Z,29.38
2023-04-13T09:05:31.660Z,25.30
2023-04-13T09:08:06.854Z,27.77
2023-04-13T09:10:36.716Z,25.80
2023-04-13T09:13:04.745Z,26.35
2023-04-13T09:15:32.953Z,25.15
2023-04-13T09:18:13.672Z,24.20
2023-04-13T09:21:00.302Z,29.40
2023-04-13T09:23:28.001Z,24.27
2023-04-13T09:26:08.105Z,25.92
2023-04-13T09:28:46.856Z,24.35
2023-04-13T09:31:15.716Z,28.83
2023-04-13T09:33:50.513Z,32.55
2023-04-13T09:36:20.670Z,26.38
2023-04-13T09:38:52.825Z,26.40
2023-04-13T09:41:40.615Z,23.20
2023-04-13T09:44:18.738Z,21.27
2023-04-13T09:47:00.782Z,18.50
2023-04-13T09:49:41.928Z,27.67
2023-04-13T09:52:38.955Z,18.00
2023-04-13T09:55:16.828Z,19.00
2023-04-13T09:57:44.353Z,20.63
2023-04-13T10:00:20.454Z,16.58
2023-04-13T10:02:50.869Z,16.15
2023-04-13T10:05:19.596Z,13.85
2023-04-13T10:07:48.551Z,14.52
2023-04-13T10:10:17.039Z,12.73
2023-04-13T10:12:48.280Z,13.18
2023-04-13T10:15:38.030Z,15.35
2023-04-13T10:18:23.768Z,14.23
2023-04-13T10:20:52.610Z,13.00
2023-04-13T10:23:21.531Z,15.43
2023-04-13T10:25:57.650Z,13.10
2023-04-13T10:28:27.272Z,16.48
2023-04-13T10:30:54.822Z,15.52
2023-04-13T10:33:22.881Z,19.95
2023-04-13T10:35:58.000Z,16.27
2023-04-13T10:38:26.068Z,17.20
2023-04-13T10:40:53.837Z,16.27
2023-04-13T10:43:27.828Z,14.02
2023-04-13T10:46:13.851Z,34.53
2023-04-13T10:48:42.248Z,14.88
2023-04-13T10:51:09.704Z,16.30
2023-04-13T10:53:37.586Z,14.68
2023-04-13T10:56:19.191Z,13.73
2023-04-13T10:58:54.117Z,9.80
2023-04-13T11:01:22.640Z,10.23
2023-04-13T11:04:03.807Z,11.45
2023-04-13T11:06:38.097Z,9.80
2023-04-13T11:09:07.236Z,6.13
2023-04-13T11:11:37.149Z,7.05
2023-04-13T11:14:04.678Z,5.35
2023-04-13T11:16:32.046Z,7.97
2023-04-13T11:19:03.988Z,4.63
2023-04-13T11:21:31.873Z,5.28
2023-04-13T11:24:02.527Z,4.93
2023-04-13T11:26:42.233Z,14.30
2023-04-13T11:29:18.768Z,9.35
2023-04-13T11:31:46.821Z,7.07
2023-04-13T11:34:25.852Z,9.18
2023-04-13T11:37:05.174Z,7.13
2023-04-13T11:39:36.206Z,4.78
2023-04-13T11:42:09.456Z,6.65
2023-04-13T11:44:37.844Z,5.53
2023-04-13T11:47:06.553Z,5.00
2023-04-13T11:49:34.471Z,5.82
2023-04-13T11:52:02.888Z,3.90
2023-04-13T11:54:30.972Z,9.00
2023-04-13T11:56:58.775Z,2.40
2023-04-13T11:59:27.871Z,6.47
2023-04-13T12:02:02.324Z,4.07
2023-04-13T12:04:38.658Z,5.25
2023-04-13T12:07:12.697Z,7.45
2023-04-13T12:15:10.581Z,9.45
2023-04-13T12:17:49.497Z,4.07
2023-04-13T12:20:17.952Z,10.75
2023-04-13T12:22:57.514Z,5.68
2023-04-13T12:25:35.587Z,8.00
2023-04-13T12:28:04.172Z,8.02
2023-04-13T12:30:33.695Z,10.10
2023-04-13T12:33:01.179Z,5.65
2023-04-13T12:35:28.531Z,3.80
2023-04-13T12:37:55.936Z,5.93
2023-04-13T12:40:23.483Z,8.75
2023-04-13T12:42:51.598Z,12.20
2023-04-13T12:45:19.168Z,8.00
2023-04-13T12:47:46.684Z,7.65
2023-04-13T12:50:14.194Z,7.10
2023-04-13T12:52:42.973Z,2.75
2023-04-13T12:55:10.629Z,5.35
2023-04-13T12:57:39.691Z,4.47
2023-04-13T13:00:11.029Z,3.65
2023-04-13T13:02:38.858Z,2.92
2023-04-13T13:05:09.724Z,3.55
2023-04-13T13:07:37.319Z,4.07
2023-04-13T13:10:14.915Z,4.78
2023-04-13T13:12:53.569Z,3.55
2023-04-13T13:15:21.031Z,5.47
2023-04-13T13:17:48.433Z,3.17
2023-04-13T13:20:16.660Z,5.13
2023-04-13T13:22:44.129Z,7.22
2023-04-13T13:25:11.670Z,5.10
2023-04-13T13:30:10.112Z,7.03
2023-04-13T13:32:37.687Z,4.05
2023-04-13T13:35:08.578Z,6.53
2023-04-13T13:37:36.954Z,2.67
2023-04-13T13:40:12.946Z,3.58
2023-04-13T13:42:51.184Z,7.13
2023-04-13T13:45:23.294Z,2.17
2023-04-13T13:47:54.799Z,3.50
2023-04-13T13:50:48.543Z,3.50
2023-04-13T13:53:16.309Z,4.10
2023-04-13T13:55:43.673Z,3.25
2023-04-13T13:58:11.294Z,3.80
2023-04-13T14:00:38.987Z,4.07
2023-04-13T14:03:06.597Z,2.85
2023-04-13T14:05:34.273Z,2.13
2023-04-13T14:08:01.690Z,2.72
2023-04-13T14:10:29.138Z,4.50
2023-04-13T14:12:59.189Z,4.10
2023-04-13T14:15:26.711Z,6.05
2023-04-13T14:18:09.094Z,6.15
2023-04-13T14:20:39.604Z,4.15
2023-04-13T14:23:09.273Z,7.88
2023-04-13T14:25:38.600Z,2.60
2023-04-13T14:28:06.792Z,5.07
2023-04-13T14:30:34.667Z,5.70
2023-04-13T14:33:03.979Z,4.40
2023-04-13T14:35:31.706Z,17.20
2023-04-13T14:37:59.674Z,11.35
2023-04-13T14:40:27.637Z,2.92
2023-04-13T14:42:55.043Z,2.67
2023-04-13T14:45:22.449Z,2.63
2023-04-13T14:47:50.537Z,2.47
2023-04-13T14:50:18.359Z,2.40
2023-04-13T14:52:47.071Z,3.55
2023-04-13T14:55:15.105Z,2.33
2023-04-13T14:57:42.805Z,3.25
2023-04-13T15:00:26.444Z,2.97
2023-04-13T15:02:54.927Z,1.10
2023-04-13T15:05:23.237Z,2.55
2023-04-13T15:07:51.015Z,4.60
2023-04-13T15:10:19.286Z,0.90
2023-04-13T15:12:48.196Z,1.67
2023-04-13T15:15:15.878Z,2.22
2023-04-13T15:17:43.283Z,1.92
2023-04-13T15:20:12.122Z,2.28
2023-04-13T15:22:39.588Z,1.20
2023-04-13T15:25:07.359Z,3.05
2023-04-13T15:27:34.878Z,3.28
2023-04-13T15:30:03.616Z,4.00
2023-04-13T15:32:34.416Z,3.13
2023-04-13T15:35:02.309Z,1.70
2023-04-13T15:37:29.702Z,3.75
2023-04-13T15:39:57.146Z,3.45
2023-04-13T15:42:26.336Z,5.47
2023-04-13T15:44:55.213Z,1.85
2023-04-13T15:47:22.907Z,2.05
2023-04-13T15:49:50.427Z,2.47
2023-04-13T15:52:17.787Z,2.80
2023-04-13T15:54:45.269Z,3.00
2023-04-13T15:57:12.697Z,4.93
2023-04-13T15:59:40.206Z,2.75
2023-04-13T16:02:07.983Z,3.22
2023-04-13T16:04:35.630Z,3.17
2023-04-13T16:07:12.715Z,1.52
2023-04-13T16:09:43.928Z,4.18
2023-04-13T16:12:11.809Z,2.83
2023-04-13T16:14:41.899Z,2.95
2023-04-13T16:17:10.302Z,2.50
2023-04-13T16:19:38.128Z,3.72
2023-04-13T16:22:06.135Z,4.18
2023-04-13T16:24:33.936Z,1.23
2023-04-13T16:27:02.242Z,2.25
2023-04-13T16:29:29.997Z,8.32
2023-04-13T16:31:57.430Z,2.88
2023-04-13T16:34:27.967Z,2.88
2023-04-13T16:36:56.236Z,6.35
2023-04-13T16:39:23.780Z,5.70
2023-04-13T16:41:51.361Z,1.73
2023-04-13T16:44:18.773Z,5.25
2023-04-13T16:46:46.639Z,1.63
2023-04-13T16:49:14.187Z,4.47
2023-04-13T16:51:41.542Z,2.50
2023-04-13T16:54:11.716Z,4.90
2023-04-13T16:56:39.212Z,4.25
2023-04-13T16:59:06.758Z,4.03
2023-04-13T17:01:37.246Z,3.40
2023-04-13T17:04:06.218Z,6.50
2023-04-13T17:06:37.416Z,3.30
2023-04-13T17:09:08.283Z,6.60
2023-04-13T17:11:36.062Z,3.92
2023-04-13T17:14:03.538Z,7.80
2023-04-13T17:16:31.125Z,5.47
2023-04-13T17:18:58.663Z,7.55
2023-04-13T17:21:27.321Z,3.75
2023-04-13T17:23:54.675Z,2.63
2023-04-13T17:26:22.044Z,4.38
2023-04-13T17:28:49.451Z,3.33
2023-04-13T17:31:17.007Z,5.45
2023-04-13T17:33:45.093Z,3.95
2023-04-13T17:36:12.508Z,4.30
2023-04-13T17:38:39.917Z,3.00
2023-04-13T17:41:07.528Z,3.83
2023-04-13T17:43:34.917Z,6.32
2023-04-13T17:46:02.958Z,5.45
2023-04-13T17:48:30.515Z,9.20
2023-04-13T17:50:57.875Z,4.50
2023-04-13T17:53:26.147Z,4.18
2023-04-13T17:55:53.584Z,5.38
2023-04-13T17:58:21.427Z,4.00
2023-04-13T18:00:48.931Z,2.83
2023-04-13T18:03:16.553Z,3.08
2023-04-13T18:05:47.139Z,2.13
2023-04-13T18:08:14.628Z,4.10
2023-04-13T18:10:42.218Z,2.92
2023-04-13T18:13:09.825Z,4.82
2023-04-13T18:15:37.202Z,4.10
2023-04-13T18:18:04.775Z,5.15
2023-04-13T18:20:32.274Z,2.50
2023-04-13T18:22:59.735Z,7.88
2023-04-13T18:25:27.154Z,4.28
2023-04-13T18:27:54.564Z,6.60
2023-04-13T18:30:21.971Z,3.67
2023-04-13T18:32:52.135Z,6.68
2023-04-13T18:35:19.592Z,4.40
2023-04-13T18:37:47.577Z,10.07
2023-04-13T18:40:14.994Z,5.68
2023-04-13T18:42:42.554Z,6.03
2023-04-13T18:45:10.439Z,3.92
2023-04-13T18:47:37.861Z,3.03
2023-04-13T18:50:06.156Z,2.60
2023-04-13T18:52:33.672Z,2.90
2023-04-13T18:55:01.124Z,4.60
2023-04-13T18:57:28.609Z,2.58
2023-04-13T18:59:57.270Z,1.17
2023-04-13T19:02:24.911Z,1.92
2023-04-13T19:04:52.615Z,2.78
2023-04-13T19:07:20.195Z,3.90
2023-04-13T19:09:47.602Z,6.35
2023-04-13T19:12:14.954Z,2.70
2023-04-13T19:14:42.409Z,3.03
2023-04-13T19:17:09.762Z,2.35
2023-04-13T19:19:37.143Z,2.53
2023-04-13T19:22:04.497Z,1.92
2023-04-13T19:24:32.158Z,3.03
2023-04-13T19:26:59.540Z,2.25
2023-04-13T19:29:30.076Z,4.85
2023-04-13T19:31:57.621Z,2.97
2023-04-13T19:34:25.012Z,1.30
2023-04-13T19:36:52.412Z,2.42
2023-04-13T19:39:19.835Z,1.50
2023-04-13T19:41:47.173Z,8.23
2023-04-13T19:44:16.764Z,3.60
2023-04-13T19:46:44.265Z,3.30
2023-04-13T19:49:12.030Z,3.40
2023-04-13T19:51:39.953Z,2.92
2023-04-13T19:54:07.457Z,3.03
2023-04-13T19:56:34.966Z,5.03
2023-04-13T19:59:06.133Z,3.05
2023-04-13T20:01:34.529Z,2.50
2023-04-13T20:04:06.465Z,5.85
2023-04-13T20:06:34.738Z,2.70
2023-04-13T20:09:11.950Z,2.85
2023-04-13T20:11:41.760Z,2.35
2023-04-13T20:14:11.493Z,3.85
2023-04-13T20:16:39.289Z,1.88
2023-04-13T20:19:09.507Z,0.93
2023-04-13T20:21:37.442Z,2.15
2023-04-13T20:24:04.914Z,2.75
2023-04-13T20:26:32.361Z,3.35
2023-04-13T20:29:01.486Z,1.92
2023-04-13T20:31:31.795Z,4.38
2023-04-13T20:33:59.610Z,3.05
2023-04-13T20:36:27.286Z,3.20
2023-04-13T20:39:01.836Z,2.05
2023-04-13T20:41:32.093Z,4.85
2023-04-13T20:44:00.792Z,5.05
2023-04-13T20:46:35.123Z,2.38
2023-04-13T20:49:05.053Z,2.65
2023-04-13T20:51:33.717Z,3.42
2023-04-13T20:54:02.701Z,3.80
2023-04-13T20:56:30.907Z,3.15
2023-04-13T20:58:58.434Z,3.80
2023-04-13T21:01:26.325Z,4.03
2023-04-13T21:03:53.868Z,6.18
2023-04-13T21:06:22.878Z,5.63
2023-04-13T21:08:52.769Z,5.60
2023-04-13T21:11:21.292Z,4.00
2023-04-13T21:13:48.674Z,7.28
2023-04-13T21:16:16.124Z,6.55
2023-04-13T21:18:43.573Z,7.13
2023-04-13T21:21:11.151Z,6.32
2023-04-13T21:23:38.567Z,6.25
2023-04-13T21:26:07.445Z,7.22
2023-04-13T21:28:35.213Z,6.90
2023-04-13T21:31:02.621Z,6.32
2023-04-13T21:33:30.008Z,10.95
2023-04-13T21:35:57.317Z,4.65
2023-04-13T21:38:24.704Z,7.70
2023-04-13T21:40:52.066Z,5.63
2023-04-13T21:43:19.387Z,10.02
2023-04-13T21:45:46.876Z,6.40
2023-04-13T21:48:14.969Z,5.47
2023-04-13T21:50:42.350Z,5.72
2023-04-13T21:53:09.694Z,5.40
2023-04-13T21:55:37.078Z,6.97
2023-04-13T21:58:04.415Z,7.88
2023-04-13T22:00:31.919Z,6.97
2023-04-13T22:02:59.561Z,9.55
2023-04-13T22:05:27.236Z,9.52
2023-04-13T22:07:54.646Z,11.63
2023-04-13T22:10:22.086Z,8.88
2023-04-13T22:12:49.492Z,6.95
2023-04-13T22:15:16.964Z,6.70
2023-04-13T22:17:44.364Z,5.47
2023-04-13T22:20:12.261Z,6.78
2023-04-13T22:22:39.742Z,8.40
2023-04-13T22:25:07.332Z,6.10
2023-04-13T22:27:37.575Z,7.72
2023-04-13T22:30:06.472Z,6.22
2023-04-13T22:32:34.184Z,4.15
2023-04-13T22:35:01.688Z,5.35
2023-04-13T22:37:31.602Z,4.47
2023-04-13T22:40:00.891Z,5.57
2023-04-13T22:42:28.793Z,7.53
2023-04-13T22:44:56.268Z,7.80
2023-04-13T22:47:24.016Z,6.63
2023-04-13T22:49:51.467Z,5.70
2023-04-13T22:52:19.622Z,4.28
2023-04-13T22:54:47.492Z,4.70
2023-04-13T22:57:14.990Z,7.70
2023-04-13T22:59:42.363Z,8.35
2023-04-13T23:02:09.926Z,8.38
2023-04-13T23:04:37.778Z,10.55
2023-04-13T23:07:05.442Z,11.52
2023-04-13T23:09:32.894Z,9.93
2023-04-13T23:12:00.271Z,9.73
2023-04-13T23:14:27.643Z,7.30
2023-04-13T23:16:54.994Z,8.13
2023-04-13T23:19:22.433Z,12.05
2023-04-13T23:21:49.820Z,12.48
2023-04-13T23:24:17.197Z,15.02
2023-04-13T23:26:44.586Z,15.20
2023-04-13T23:29:12.006Z,8.75
2023-04-13T23:31:39.514Z,8.57
2023-04-13T23:34:06.902Z,4.82
2023-04-13T23:36:34.380Z,5.28
2023-04-13T23:39:01.991Z,6.30
2023-04-13T23:41:29.704Z,5.55
2023-04-13T23:43:57.079Z,6.18
2023-04-13T23:46:25.182Z,4.57
2023-04-13T23:48:52.526Z,6.40
2023-04-13T23:51:19.857Z,6.97
2023-04-13T23:53:47.283Z,5.30
2023-04-13T23:56:14.699Z,4.20
2023-04-13T23:58:42.100Z,5.38
